Tulsa, Oklahoma
Current Conditions -  °F | °C
As of 12:53 PM on Friday 24 Oct 2014 (Local Time) from KTUL Reporting Station
Overcast Overcast  
Wind Chill: 75°   Ceiling: 25000
Heat Index: 75°   Visibility: 10mi
Dew Point: 59°   Wind: 10mph
Humidity: 57%   Direction: 200°SSW
Pressure: 30.08"   Gusts: NA
Location:  36.15°N, 95.99°W
Report Text: KTUL 241753Z 20009KT 10SM OVC250 24/15 A3008 RMK AO2 SLP180 T02390150 10239 20150 58013
Loading
Personal Weather Stations






























Interactive Weather Map New forecast layout! Learn more

10-Day Weather Forecast

Advertisements
Track Severe Weather on mobile